createdAt,value
2018-02-11T00:02:04.437Z,76.80
2018-02-11T00:04:32.005Z,76.60
2018-02-11T00:06:59.544Z,76.70
2018-02-11T00:09:27.126Z,76.70
2018-02-11T00:11:54.660Z,76.70
2018-02-11T00:14:22.297Z,76.50
2018-02-11T00:16:49.916Z,76.70
2018-02-11T00:19:17.460Z,76.50
2018-02-11T00:21:45.033Z,76.60
2018-02-11T00:24:12.569Z,76.60
2018-02-11T00:26:40.556Z,76.50
2018-02-11T00:29:08.136Z,76.60
2018-02-11T00:31:35.658Z,76.60
2018-02-11T00:34:03.231Z,76.50
2018-02-11T00:36:30.778Z,76.60
2018-02-11T00:38:58.378Z,76.60
2018-02-11T00:41:26.821Z,76.60
2018-02-11T00:43:54.414Z,76.70
2018-02-11T00:46:22.008Z,76.60
2018-02-11T00:48:49.601Z,76.60
2018-02-11T00:51:17.123Z,76.60
2018-02-11T00:53:44.667Z,76.50
2018-02-11T00:56:12.240Z,76.50
2018-02-11T00:58:39.776Z,76.60
2018-02-11T01:01:07.365Z,77.00
2018-02-11T01:03:34.905Z,76.60
2018-02-11T01:06:02.477Z,76.60
2018-02-11T01:08:30.016Z,76.60
2018-02-11T01:10:57.547Z,76.70
2018-02-11T01:13:25.148Z,76.70
2018-02-11T01:15:52.678Z,76.60
2018-02-11T01:18:20.259Z,77.00
2018-02-11T01:20:47.797Z,76.60
2018-02-11T01:23:15.376Z,76.70
2018-02-11T01:25:42.905Z,76.60
2018-02-11T01:28:10.454Z,76.60
2018-02-11T01:30:38.052Z,76.60
2018-02-11T01:33:05.576Z,76.60
2018-02-11T01:35:35.785Z,76.70
2018-02-11T01:38:03.356Z,76.70
2018-02-11T01:40:30.928Z,76.70
2018-02-11T01:42:58.465Z,76.80
2018-02-11T01:45:26.045Z,76.80
2018-02-11T01:47:53.594Z,76.90
2018-02-11T01:50:21.127Z,76.80
2018-02-11T01:52:48.716Z,76.90
2018-02-11T01:55:16.291Z,76.90
2018-02-11T01:57:43.864Z,77.00
2018-02-11T02:00:11.412Z,77.00
2018-02-11T02:02:41.993Z,77.00
2018-02-11T02:05:09.527Z,77.00
2018-02-11T02:07:37.081Z,76.90
2018-02-11T02:10:04.648Z,77.30
2018-02-11T02:12:32.975Z,77.60
2018-02-11T02:15:00.552Z,77.00
2018-02-11T02:17:28.094Z,77.00
2018-02-11T02:19:55.629Z,77.00
2018-02-11T02:22:23.217Z,77.10
2018-02-11T02:24:50.748Z,77.10
2018-02-11T02:27:18.318Z,77.30
2018-02-11T02:29:46.657Z,77.40
2018-02-11T02:32:14.230Z,77.50
2018-02-11T02:34:42.532Z,77.40
2018-02-11T02:37:10.115Z,77.40
2018-02-11T02:39:37.652Z,77.40
2018-02-11T02:42:05.225Z,77.30
2018-02-11T02:44:32.813Z,77.40
2018-02-11T02:47:00.353Z,77.30
2018-02-11T02:49:27.915Z,77.30
2018-02-11T02:51:55.442Z,77.20
2018-02-11T02:54:23.020Z,77.20
2018-02-11T02:56:50.563Z,77.10
2018-02-11T02:59:18.098Z,77.20
2018-02-11T03:01:45.691Z,77.20
2018-02-11T03:04:13.212Z,77.10
2018-02-11T03:06:41.545Z,77.20
2018-02-11T03:09:09.085Z,77.10
2018-02-11T03:11:36.672Z,77.20
2018-02-11T03:14:04.209Z,77.10
2018-02-11T03:16:31.732Z,77.00
2018-02-11T03:19:00.052Z,77.10
2018-02-11T03:21:27.585Z,77.00
2018-02-11T03:23:56.004Z,77.00
2018-02-11T03:26:23.535Z,77.10
2018-02-11T03:28:51.397Z,77.00
2018-02-11T03:31:18.928Z,77.00
2018-02-11T03:33:47.243Z,77.00
2018-02-11T03:36:14.996Z,77.00
2018-02-11T03:38:42.549Z,77.00
2018-02-11T03:41:10.145Z,76.90
2018-02-11T03:43:37.814Z,76.80
2018-02-11T03:46:05.389Z,76.80
2018-02-11T03:48:32.988Z,76.70
2018-02-11T03:51:00.762Z,76.90
2018-02-11T03:53:28.385Z,76.80
2018-02-11T03:55:55.924Z,76.90
2018-02-11T03:58:23.504Z,76.80
2018-02-11T04:00:51.045Z,76.80
2018-02-11T04:03:18.729Z,76.80
2018-02-11T04:05:47.113Z,76.80
2018-02-11T04:08:14.644Z,76.70
2018-02-11T04:10:42.242Z,76.70
2018-02-11T04:13:09.779Z,76.70
2018-02-11T04:15:37.555Z,76.80
2018-02-11T04:18:05.189Z,76.80
2018-02-11T04:20:32.938Z,76.70
2018-02-11T04:23:00.476Z,76.70
2018-02-11T04:25:28.015Z,76.70
2018-02-11T04:27:55.761Z,76.50
2018-02-11T04:30:24.064Z,76.60
2018-02-11T04:32:51.829Z,76.60
2018-02-11T04:35:19.370Z,76.60
2018-02-11T04:37:47.717Z,76.60
2018-02-11T04:40:15.240Z,76.60
2018-02-11T04:42:43.320Z,76.50
2018-02-11T04:45:10.850Z,76.40
2018-02-11T04:47:38.386Z,76.40
2018-02-11T04:50:06.184Z,76.40
2018-02-11T04:52:33.718Z,76.40
2018-02-11T04:55:01.312Z,76.40
2018-02-11T04:57:28.841Z,76.40
2018-02-11T04:59:56.365Z,76.40
2018-02-11T05:02:24.108Z,76.40
2018-02-11T05:04:51.653Z,76.40
2018-02-11T05:07:19.225Z,76.30
2018-02-11T05:09:46.770Z,76.40
2018-02-11T05:12:14.429Z,76.50
2018-02-11T05:14:41.960Z,76.50
2018-02-11T05:17:09.497Z,76.50
2018-02-11T05:19:37.237Z,76.50
2018-02-11T05:22:04.789Z,76.60
2018-02-11T05:24:32.351Z,76.50
2018-02-11T05:26:59.900Z,76.50
2018-02-11T05:29:27.484Z,76.50
2018-02-11T05:31:55.023Z,76.50
2018-02-11T05:34:22.572Z,76.60
2018-02-11T05:36:50.140Z,76.80
2018-02-11T05:39:19.437Z,76.70
2018-02-11T05:41:46.999Z,76.60
2018-02-11T05:44:14.539Z,76.60
2018-02-11T05:46:42.118Z,76.60
2018-02-11T05:49:09.657Z,76.60
2018-02-11T05:51:37.204Z,76.60
2018-02-11T05:54:04.963Z,76.40
2018-02-11T05:56:32.520Z,76.40
2018-02-11T05:59:00.090Z,76.40
2018-02-11T06:01:27.632Z,76.10
2018-02-11T06:03:55.191Z,76.20
2018-02-11T06:06:23.480Z,76.10
2018-02-11T06:08:51.066Z,76.10
2018-02-11T06:11:18.738Z,75.90
2018-02-11T06:13:46.280Z,75.80
2018-02-11T06:16:13.844Z,75.80
2018-02-11T06:18:41.375Z,75.70
2018-02-11T06:21:08.978Z,75.60
2018-02-11T06:23:36.513Z,75.50
2018-02-11T06:26:04.308Z,75.50
2018-02-11T06:28:31.860Z,75.30
2018-02-11T06:30:59.413Z,75.30
2018-02-11T06:33:27.271Z,75.50
2018-02-11T06:35:54.796Z,75.40
2018-02-11T06:38:22.381Z,75.40
2018-02-11T06:40:49.909Z,75.40
2018-02-11T06:43:17.525Z,75.40
2018-02-11T06:45:45.060Z,75.50
2018-02-11T06:48:12.873Z,75.50
2018-02-11T06:50:41.175Z,76.00
2018-02-11T06:53:08.697Z,75.40
2018-02-11T06:55:37.764Z,75.50
2018-02-11T06:58:05.298Z,75.50
2018-02-11T07:00:32.985Z,75.40
2018-02-11T07:03:00.493Z,75.40
2018-02-11T07:05:28.836Z,75.20
2018-02-11T07:07:56.381Z,75.20
2018-02-11T07:10:23.956Z,75.10
2018-02-11T07:12:51.488Z,74.90
2018-02-11T07:15:19.028Z,75.10
2018-02-11T07:17:46.875Z,75.10
2018-02-11T07:20:14.503Z,75.00
2018-02-11T07:22:42.077Z,74.90
2018-02-11T07:25:09.607Z,75.60
2018-02-11T07:27:37.209Z,74.70
2018-02-11T07:30:04.740Z,74.30
2018-02-11T07:32:32.271Z,74.10
2018-02-11T07:34:59.841Z,74.20
2018-02-11T07:37:27.365Z,74.20
2018-02-11T07:39:55.097Z,74.30
2018-02-11T07:42:22.640Z,74.10
2018-02-11T07:44:50.324Z,74.00
2018-02-11T07:47:18.660Z,73.70
2018-02-11T07:49:46.181Z,73.70
2018-02-11T07:52:13.769Z,73.40
2018-02-11T07:54:41.298Z,73.30
2018-02-11T07:57:08.996Z,73.50
2018-02-11T07:59:36.522Z,73.40
2018-02-11T08:02:04.124Z,73.50
2018-02-11T08:04:31.676Z,73.40
2018-02-11T08:06:59.221Z,73.30
2018-02-11T08:09:26.779Z,73.10
2018-02-11T08:11:54.308Z,73.00
2018-02-11T08:14:22.431Z,72.70
2018-02-11T08:16:50.065Z,72.60
2018-02-11T08:19:17.658Z,72.40
2018-02-11T08:21:45.223Z,72.10
2018-02-11T08:24:12.768Z,72.10
2018-02-11T08:26:40.338Z,71.70
2018-02-11T08:29:07.833Z,71.40
2018-02-11T08:31:36.180Z,71.10
2018-02-11T08:34:03.716Z,71.10
2018-02-11T08:36:31.249Z,71.10
2018-02-11T08:38:58.825Z,71.20
2018-02-11T08:41:26.364Z,71.30
2018-02-11T08:43:53.931Z,71.30
2018-02-11T08:46:21.464Z,70.60
2018-02-11T08:48:49.809Z,70.10
2018-02-11T08:51:17.339Z,70.10
2018-02-11T08:53:45.197Z,70.00
2018-02-11T08:56:12.772Z,70.00
2018-02-11T08:58:40.488Z,70.10
2018-02-11T09:01:08.181Z,70.00
2018-02-11T09:03:35.709Z,69.70
2018-02-11T09:06:04.548Z,69.70
2018-02-11T09:08:32.090Z,69.70
2018-02-11T09:10:59.636Z,69.80
2018-02-11T09:13:27.514Z,69.70
2018-02-11T09:15:55.046Z,69.70
2018-02-11T09:18:23.392Z,69.80
2018-02-11T09:20:51.100Z,69.90
2018-02-11T09:23:18.683Z,69.80
2018-02-11T09:25:46.248Z,69.80
2018-02-11T09:28:13.779Z,69.50
2018-02-11T09:30:41.614Z,69.50
2018-02-11T09:33:09.217Z,69.70
2018-02-11T09:35:36.788Z,69.70
2018-02-11T09:38:04.400Z,69.90
2018-02-11T09:40:32.732Z,70.50
2018-02-11T09:43:00.262Z,69.90
2018-02-11T09:45:27.791Z,69.60
2018-02-11T09:47:55.353Z,69.80
2018-02-11T09:50:23.015Z,68.90
2018-02-11T09:52:50.596Z,69.30
2018-02-11T09:55:18.199Z,69.10
2018-02-11T09:57:45.799Z,69.10
2018-02-11T10:00:13.336Z,69.10
2018-02-11T10:02:40.883Z,69.40
2018-02-11T10:05:08.493Z,69.30
2018-02-11T10:07:36.818Z,69.30
2018-02-11T10:10:04.537Z,69.30
2018-02-11T10:12:32.317Z,69.40
2018-02-11T10:14:59.879Z,69.10
2018-02-11T10:17:27.429Z,68.50
2018-02-11T10:19:55.354Z,68.10
2018-02-11T10:22:22.901Z,68.00
2018-02-11T10:24:50.436Z,68.00
2018-02-11T10:27:18.257Z,68.40
2018-02-11T10:29:46.571Z,68.30
2018-02-11T10:32:14.151Z,68.20
2018-02-11T10:34:41.778Z,68.30
2018-02-11T10:37:09.421Z,68.50
2018-02-11T10:39:37.727Z,68.60
2018-02-11T10:42:05.720Z,68.60
2018-02-11T10:44:33.354Z,68.40
2018-02-11T10:47:00.905Z,68.30
2018-02-11T10:49:28.484Z,68.40
2018-02-11T10:51:56.020Z,67.90
2018-02-11T10:54:23.638Z,67.90
2018-02-11T10:56:51.373Z,67.50
2018-02-11T10:59:19.572Z,67.40
2018-02-11T11:01:47.117Z,67.30
2018-02-11T11:04:14.665Z,66.80
2018-02-11T11:06:42.272Z,66.70
2018-02-11T11:09:09.811Z,66.90
2018-02-11T11:11:37.384Z,66.40
2018-02-11T11:14:04.947Z,66.20
2018-02-11T11:16:33.290Z,65.30
2018-02-11T11:19:01.942Z,65.30
2018-02-11T11:21:29.523Z,65.60
2018-02-11T11:23:57.053Z,66.40
2018-02-11T11:26:24.610Z,65.30
2018-02-11T11:28:52.191Z,65.80
2018-02-11T11:31:19.733Z,65.00
2018-02-11T11:33:47.305Z,65.70
2018-02-11T11:36:14.835Z,67.10
2018-02-11T11:38:42.469Z,66.50
2018-02-11T11:41:10.015Z,66.40
2018-02-11T11:43:37.600Z,66.40
2018-02-11T11:46:05.157Z,66.20
2018-02-11T11:48:33.786Z,66.50
2018-02-11T11:51:01.362Z,66.50
2018-02-11T11:53:28.901Z,66.70
2018-02-11T11:55:56.477Z,66.80
2018-02-11T11:58:24.232Z,66.70
2018-02-11T12:00:51.801Z,66.50
2018-02-11T12:03:19.347Z,66.20
2018-02-11T12:05:46.897Z,65.90
2018-02-11T12:08:14.472Z,66.10
2018-02-11T12:10:42.804Z,65.90
2018-02-11T12:13:10.364Z,65.40
2018-02-11T12:15:37.931Z,65.70
2018-02-11T12:18:06.751Z,66.10
2018-02-11T12:20:34.271Z,66.10
2018-02-11T12:23:02.633Z,64.90
2018-02-11T12:25:31.708Z,65.50
2018-02-11T12:27:59.326Z,65.50
2018-02-11T12:30:27.145Z,65.30
2018-02-11T12:32:54.676Z,65.60
2018-02-11T12:35:22.587Z,65.60
2018-02-11T12:37:50.216Z,66.10
2018-02-11T12:40:17.716Z,65.90
2018-02-11T12:42:45.456Z,65.80
2018-02-11T12:45:12.986Z,65.80
2018-02-11T12:47:40.563Z,65.90
2018-02-11T12:50:08.127Z,67.40
2018-02-11T12:52:35.700Z,66.30
2018-02-11T12:55:03.316Z,66.60
2018-02-11T12:57:30.849Z,66.10
2018-02-11T12:59:59.341Z,66.10
2018-02-11T13:02:26.864Z,66.10
2018-02-11T13:04:54.432Z,66.20
2018-02-11T13:07:21.966Z,66.60
2018-02-11T13:09:49.577Z,66.10
2018-02-11T13:12:17.232Z,67.60
2018-02-11T13:14:45.545Z,67.50
2018-02-11T13:17:13.139Z,67.50
2018-02-11T13:19:40.661Z,67.40
2018-02-11T13:22:08.669Z,67.50
2018-02-11T13:24:36.229Z,67.70
2018-02-11T13:27:03.794Z,67.90
2018-02-11T13:29:31.409Z,68.10
2018-02-11T13:31:58.941Z,68.80
2018-02-11T13:34:26.531Z,69.10
2018-02-11T13:36:54.062Z,69.90
2018-02-11T13:39:22.067Z,70.90
2018-02-11T13:41:49.606Z,71.20
2018-02-11T13:44:17.148Z,71.20
2018-02-11T13:46:44.708Z,72.00
2018-02-11T13:49:12.246Z,72.20
2018-02-11T13:51:40.172Z,72.20
2018-02-11T13:54:07.700Z,72.20
2018-02-11T13:56:35.240Z,72.20
2018-02-11T13:59:02.812Z,72.20
2018-02-11T14:01:30.348Z,72.10
2018-02-11T14:03:58.094Z,73.60
2018-02-11T14:06:25.712Z,74.00
2018-02-11T14:08:53.592Z,74.80
2018-02-11T14:11:21.124Z,75.20
2018-02-11T14:13:48.670Z,76.10
2018-02-11T14:16:16.261Z,76.70
2018-02-11T14:18:43.803Z,76.30
2018-02-11T14:21:11.396Z,77.20
2018-02-11T14:23:38.920Z,77.00
2018-02-11T14:26:07.297Z,77.80
2018-02-11T14:28:34.838Z,77.40
2018-02-11T14:31:02.397Z,77.40
2018-02-11T14:33:30.882Z,78.00
2018-02-11T14:35:59.188Z,78.30
2018-02-11T14:38:26.735Z,78.20
2018-02-11T14:40:54.322Z,78.00
2018-02-11T14:43:21.862Z,77.90
2018-02-11T14:45:49.472Z,78.10
2018-02-11T14:48:17.036Z,78.30
2018-02-11T14:50:44.571Z,78.10
2018-02-11T14:53:12.148Z,78.60
2018-02-11T14:55:39.700Z,78.60
2018-02-11T14:58:07.232Z,78.60
2018-02-11T15:00:34.999Z,78.80
2018-02-11T15:03:02.545Z,78.80
2018-02-11T15:05:30.097Z,78.60
2018-02-11T15:07:57.659Z,78.80
2018-02-11T15:10:25.269Z,78.80
2018-02-11T15:12:52.853Z,78.70
2018-02-11T15:15:21.155Z,78.70
2018-02-11T15:17:48.723Z,78.60
2018-02-11T15:20:16.465Z,78.60
2018-02-11T15:22:44.766Z,78.80
2018-02-11T15:25:12.323Z,78.70
2018-02-11T15:27:40.017Z,78.80
2018-02-11T15:30:07.578Z,78.60
2018-02-11T15:32:35.220Z,78.60
2018-02-11T15:35:02.777Z,78.90
2018-02-11T15:37:30.305Z,78.90
2018-02-11T15:39:57.871Z,78.80
2018-02-11T15:42:25.797Z,79.20
2018-02-11T15:44:53.493Z,79.20
2018-02-11T15:47:21.825Z,79.70
2018-02-11T15:49:49.381Z,79.70
2018-02-11T15:52:16.961Z,79.90
2018-02-11T15:54:45.401Z,80.00
2018-02-11T15:57:12.943Z,79.90
2018-02-11T15:59:40.523Z,80.00
2018-02-11T16:02:08.077Z,79.90
2018-02-11T16:04:35.670Z,79.80
2018-02-11T16:07:03.225Z,79.80
2018-02-11T16:09:30.805Z,79.40
2018-02-11T16:11:58.337Z,79.20
2018-02-11T16:14:25.972Z,78.70
2018-02-11T16:16:53.597Z,78.50
2018-02-11T16:19:21.120Z,78.50
2018-02-11T16:21:49.024Z,78.00
2018-02-11T16:24:16.532Z,77.70
2018-02-11T16:26:44.065Z,77.50
2018-02-11T16:29:11.632Z,77.00
2018-02-11T16:31:39.188Z,77.10
2018-02-11T16:34:06.764Z,77.00
2018-02-11T16:36:34.513Z,76.70
2018-02-11T16:39:02.112Z,76.50
2018-02-11T16:41:29.837Z,76.50
2018-02-11T16:43:57.394Z,76.40
2018-02-11T16:46:25.241Z,76.50
2018-02-11T16:48:53.642Z,76.40
2018-02-11T16:51:21.241Z,76.40
2018-02-11T16:53:49.035Z,75.70
2018-02-11T16:56:17.407Z,75.70
2018-02-11T16:58:44.954Z,75.70
2018-02-11T17:01:12.493Z,75.80
2018-02-11T17:03:40.063Z,75.80
2018-02-11T17:06:07.953Z,75.90
2018-02-11T17:08:36.309Z,75.80
2018-02-11T17:11:03.868Z,75.90
2018-02-11T17:13:31.488Z,75.70
2018-02-11T17:15:59.042Z,75.70
2018-02-11T17:18:26.573Z,75.80
2018-02-11T17:20:54.277Z,76.20
2018-02-11T17:23:21.822Z,75.60
2018-02-11T17:25:49.410Z,75.80
2018-02-11T17:28:17.049Z,75.60
2018-02-11T17:30:44.709Z,75.60
2018-02-11T17:33:12.247Z,75.60
2018-02-11T17:35:39.797Z,75.60
2018-02-11T17:38:10.176Z,75.60
2018-02-11T17:40:37.721Z,75.60
2018-02-11T17:43:05.516Z,75.60
2018-02-11T17:45:33.053Z,75.60
2018-02-11T17:48:00.600Z,75.60
2018-02-11T17:50:28.180Z,75.50
2018-02-11T17:52:55.991Z,75.60
2018-02-11T17:55:24.356Z,75.60
2018-02-11T17:57:52.032Z,75.60
2018-02-11T18:00:20.157Z,75.60
2018-02-11T18:02:47.694Z,75.60
2018-02-11T18:05:15.968Z,75.60
2018-02-11T18:07:43.593Z,75.60
2018-02-11T18:10:11.929Z,75.50
2018-02-11T18:12:39.501Z,75.50
2018-02-11T18:15:07.040Z,75.50
2018-02-11T18:17:34.622Z,75.50
2018-02-11T18:20:02.173Z,75.50
2018-02-11T18:22:29.693Z,75.50
2018-02-11T18:24:57.278Z,75.50
2018-02-11T18:27:24.970Z,75.50
2018-02-11T18:29:52.558Z,75.50
2018-02-11T18:32:20.866Z,75.70
2018-02-11T18:34:48.421Z,75.70
2018-02-11T18:37:15.988Z,75.60
2018-02-11T18:39:43.516Z,75.60
2018-02-11T18:42:11.869Z,75.50
2018-02-11T18:44:39.484Z,75.50
2018-02-11T18:47:07.020Z,75.50
2018-02-11T18:49:35.130Z,75.60
2018-02-11T18:52:02.670Z,75.80
2018-02-11T18:54:30.504Z,75.80
2018-02-11T18:56:58.988Z,75.90
2018-02-11T18:59:27.313Z,75.90
2018-02-11T19:01:54.910Z,75.90
2018-02-11T19:04:22.449Z,75.90
2018-02-11T19:06:50.176Z,76.70
2018-02-11T19:09:17.715Z,76.00
2018-02-11T19:11:45.369Z,76.00
2018-02-11T19:14:14.369Z,75.80
2018-02-11T19:16:41.912Z,75.80
2018-02-11T19:19:09.514Z,75.90
2018-02-11T19:21:37.061Z,76.00
2018-02-11T19:24:04.598Z,76.10
2018-02-11T19:26:32.189Z,76.10
2018-02-11T19:28:59.727Z,76.00
2018-02-11T19:31:27.638Z,75.80
2018-02-11T19:33:55.409Z,76.10
2018-02-11T19:36:22.949Z,76.20
2018-02-11T19:38:50.527Z,76.40
2018-02-11T19:41:18.229Z,76.30
2018-02-11T19:43:46.122Z,76.10
2018-02-11T19:46:13.669Z,76.10
2018-02-11T19:48:41.973Z,76.20
2018-02-11T19:51:09.550Z,76.10
2018-02-11T19:53:37.770Z,76.70
2018-02-11T19:56:05.481Z,75.90
2018-02-11T19:58:33.020Z,76.00
2018-02-11T20:01:00.556Z,76.10
2018-02-11T20:03:28.941Z,76.60
2018-02-11T20:05:56.477Z,75.90
2018-02-11T20:08:24.189Z,75.90
2018-02-11T20:10:51.735Z,75.90
2018-02-11T20:13:19.328Z,75.90
2018-02-11T20:15:46.866Z,76.00
2018-02-11T20:18:14.593Z,75.90
2018-02-11T20:20:42.175Z,76.00
2018-02-11T20:23:09.736Z,76.00
2018-02-11T20:25:37.317Z,76.10
2018-02-11T20:28:04.862Z,76.10
2018-02-11T20:30:32.437Z,76.10
2018-02-11T20:32:59.985Z,76.10
2018-02-11T20:35:27.539Z,76.10
2018-02-11T20:37:55.118Z,75.80
2018-02-11T20:40:22.664Z,76.00
2018-02-11T20:42:50.417Z,75.90
2018-02-11T20:45:17.919Z,75.70
2018-02-11T20:47:45.457Z,75.80
2018-02-11T20:50:13.012Z,75.80
2018-02-11T20:52:40.536Z,75.80
2018-02-11T20:55:08.142Z,75.90
2018-02-11T20:57:35.688Z,76.00
2018-02-11T21:03:05.901Z,75.70
2018-02-11T21:05:33.468Z,76.00
2018-02-11T21:08:01.048Z,76.10
2018-02-11T21:10:28.576Z,76.10
2018-02-11T21:12:56.655Z,76.20
2018-02-11T21:15:24.281Z,76.20
2018-02-11T21:17:51.809Z,76.00
2018-02-11T21:20:20.159Z,76.00
2018-02-11T21:22:50.122Z,76.00
2018-02-11T21:25:20.528Z,75.80
2018-02-11T21:27:50.026Z,75.90
2018-02-11T21:30:19.909Z,75.90
2018-02-11T21:32:49.137Z,76.40
2018-02-11T21:35:20.499Z,75.80
2018-02-11T21:37:49.669Z,76.10
2018-02-11T21:40:17.814Z,76.40
2018-02-11T21:42:47.293Z,77.10
2018-02-11T21:45:17.142Z,77.70
2018-02-11T21:47:45.530Z,77.10
2018-02-11T21:50:14.027Z,78.50
2018-02-11T21:52:42.589Z,79.60
2018-02-11T21:55:11.663Z,79.60
2018-02-11T21:57:40.762Z,79.60
2018-02-11T22:02:35.872Z,79.90
2018-02-11T22:05:04.364Z,79.60
2018-02-11T22:07:32.108Z,80.20
2018-02-11T22:10:01.340Z,80.30
2018-02-11T22:12:28.904Z,80.30
2018-02-11T22:14:56.599Z,80.30
2018-02-11T22:17:24.179Z,80.60
2018-02-11T22:19:52.217Z,81.00
2018-02-11T22:22:19.771Z,81.20
2018-02-11T22:24:47.312Z,82.40
2018-02-11T22:27:15.000Z,81.90
2018-02-11T22:29:44.030Z,80.20
2018-02-11T22:32:12.025Z,80.10
2018-02-11T22:34:39.600Z,81.20
2018-02-11T22:37:07.145Z,80.70
2018-02-11T22:39:34.717Z,81.20
2018-02-11T22:42:02.254Z,80.80
2018-02-11T22:44:29.865Z,80.80
2018-02-11T22:46:57.399Z,80.90
2018-02-11T22:49:25.127Z,80.90
2018-02-11T22:51:52.658Z,81.40
2018-02-11T22:54:20.954Z,82.00
2018-02-11T22:56:48.529Z,81.90
2018-02-11T22:59:16.084Z,81.80
2018-02-11T23:01:43.752Z,82.50
2018-02-11T23:04:11.289Z,82.70
2018-02-11T23:06:38.849Z,82.30
2018-02-11T23:09:06.388Z,82.00
2018-02-11T23:11:33.912Z,82.00
2018-02-11T23:14:01.483Z,81.70
2018-02-11T23:16:29.022Z,81.70
2018-02-11T23:18:56.617Z,81.90
2018-02-11T23:21:24.164Z,81.90
2018-02-11T23:23:51.807Z,82.20
2018-02-11T23:26:19.541Z,82.20
2018-02-11T23:28:47.078Z,82.40
2018-02-11T23:31:14.662Z,82.90
2018-02-11T23:33:42.212Z,83.20
2018-02-11T23:36:09.824Z,83.20
2018-02-11T23:38:37.352Z,83.20
2018-02-11T23:41:04.880Z,83.30
2018-02-11T23:43:32.658Z,83.20
2018-02-11T23:46:00.183Z,83.10
2018-02-11T23:48:28.512Z,83.30
2018-02-11T23:50:56.068Z,83.10
2018-02-11T23:53:23.632Z,82.70
2018-02-11T23:55:51.172Z,82.60
2018-02-11T23:58:18.687Z,82.50
